Time;durP1;ratioP1;P1;durP2;ratioP2;P2;SDS_P1;SDS_P2;PMS_P1;PMS_P2;Temp;Humidity;BMP_temperature;BMP_pressure;BME280_temperature;BME280_humidity;BME280_pressure;Samples;Min_cycle;Max_cycle;Signal;HPM_P1;HPM_P2
2023/11/17 00:00:54;;;;;;;3.53;1.42;;;;;;;6.13;100.00;98256.00;5062847;28;20055;-75
2023/11/17 00:03:19;;;;;;;2.88;1.60;;;;;;;6.12;100.00;98268.59;5045657;28;20021;-76
2023/11/17 00:05:45;;;;;;;2.88;1.90;;;;;;;6.18;100.00;98282.28;5048298;28;20329;-75
2023/11/17 00:08:11;;;;;;;4.00;1.80;;;;;;;6.22;100.00;98286.28;5065412;28;20047;-76
2023/11/17 00:10:38;;;;;;;5.03;2.58;;;;;;;6.18;100.00;98293.88;5059953;28;20333;-75
2023/11/17 00:13:03;;;;;;;4.13;2.13;;;;;;;6.15;100.00;98302.31;5063381;28;20024;-75
2023/11/17 00:15:28;;;;;;;3.83;2.20;;;;;;;6.22;100.00;98318.50;5062728;28;20032;-76
2023/11/17 00:17:54;;;;;;;4.32;2.25;;;;;;;6.23;100.00;98322.84;5062772;28;20028;-75
2023/11/17 00:20:20;;;;;;;3.78;2.35;;;;;;;6.21;100.00;98336.50;5062864;28;20368;-75
2023/11/17 00:22:47;;;;;;;4.50;2.45;;;;;;;6.18;100.00;98355.66;5063940;28;20025;-75
2023/11/17 00:25:17;;;;;;;5.45;2.67;;;;;;;6.14;100.00;98349.81;5074676;28;20072;-77
2023/11/17 00:27:42;;;;;;;5.10;2.40;;;;;;;6.10;100.00;98366.47;5052714;28;20341;-76
2023/11/17 00:30:08;;;;;;;5.50;2.30;;;;;;;6.10;100.00;98366.47;5074366;28;20029;-76
2023/11/17 00:32:35;;;;;;;4.32;2.15;;;;;;;6.05;100.00;98372.44;5043089;28;20345;-76
2023/11/17 00:35:01;;;;;;;7.93;1.88;;;;;;;6.05;100.00;98390.38;5042947;28;20029;-75
2023/11/17 00:37:26;;;;;;;5.25;2.50;;;;;;;5.57;100.00;98339.66;5061989;28;20265;-76
2023/11/17 00:39:55;;;;;;;7.40;2.30;;;;;;;5.93;100.00;98404.25;5045069;28;20314;-75
2023/11/17 00:42:20;;;;;;;5.70;1.98;;;;;;;5.92;100.00;98425.88;5045060;28;20017;-75
2023/11/17 00:44:46;;;;;;;6.15;2.03;;;;;;;5.90;100.00;98422.56;5062738;28;20025;-75
2023/11/17 00:47:12;;;;;;;3.65;1.65;;;;;;;5.78;100.00;98419.47;5044669;28;20017;-75
2023/11/17 00:52:06;;;;;;;4.05;1.50;;;;;;;5.91;100.00;98448.38;5040899;28;20060;-74
2023/11/17 00:54:36;;;;;;;2.95;1.38;;;;;;;5.90;100.00;98462.84;5042576;28;20341;-75
2023/11/17 00:57:03;;;;;;;1.90;1.38;;;;;;;5.85;100.00;98462.56;5024722;28;20063;-76
2023/11/17 00:59:29;;;;;;;2.40;1.33;;;;;;;5.89;100.00;98488.00;5038987;28;20249;-76
2023/11/17 01:01:55;;;;;;;3.58;1.20;;;;;;;5.82;100.00;98484.41;5041538;28;20022;-74
2023/11/17 01:04:21;;;;;;;2.03;1.10;;;;;;;5.85;100.00;98500.97;5042348;28;20210;-74
2023/11/17 01:06:53;;;;;;;1.52;1.00;;;;;;;5.69;100.00;98498.41;5033801;28;20025;-75
2023/11/17 01:09:18;;;;;;;2.45;1.40;;;;;;;5.76;100.00;98518.13;5022828;28;20036;-75
2023/11/17 01:11:44;;;;;;;2.45;1.13;;;;;;;5.75;100.00;98526.38;5045954;28;20029;-74
2023/11/17 01:14:09;;;;;;;1.33;0.80;;;;;;;5.67;100.00;98513.88;5046130;28;20061;-75
2023/11/17 01:16:35;;;;;;;2.35;1.23;;;;;;;5.75;100.00;98532.59;5026475;28;20044;-75
2023/11/17 01:19:00;;;;;;;1.88;1.00;;;;;;;5.66;100.00;98528.31;5014933;28;20022;-75
2023/11/17 01:21:26;;;;;;;1.77;1.13;;;;;;;5.85;100.00;98553.84;5026039;28;20037;-74
2023/11/17 01:23:51;;;;;;;3.13;1.10;;;;;;;5.65;100.00;98538.19;5008684;28;20026;-74
2023/11/17 01:26:17;;;;;;;1.92;1.17;;;;;;;5.71;100.00;98569.69;5030514;28;20238;-74
2023/11/17 01:28:43;;;;;;;2.78;1.00;;;;;;;5.77;100.00;98570.00;5022335;28;20037;-74
2023/11/17 01:31:08;;;;;;;3.47;1.20;;;;;;;5.84;100.00;98601.31;5034595;28;20026;-75
2023/11/17 01:33:33;;;;;;;1.42;0.80;;;;;;;5.85;100.00;98602.97;5026084;28;20026;-76
2023/11/17 01:35:58;;;;;;;3.13;0.98;;;;;;;5.89;100.00;98608.81;5008875;28;20022;-76
2023/11/17 01:38:26;;;;;;;2.03;1.00;;;;;;;5.75;100.00;98598.88;5032563;28;20025;-76
2023/11/17 01:40:52;;;;;;;1.75;1.08;;;;;;;5.87;100.00;98616.25;5045320;28;20033;-73
2023/11/17 01:43:17;;;;;;;2.10;1.00;;;;;;;5.68;100.00;98596.88;5037070;28;20077;-74
2023/11/17 01:45:44;;;;;;;1.95;1.20;;;;;;;5.82;100.00;98627.50;5025771;28;20022;-76
2023/11/17 01:48:10;;;;;;;3.72;1.33;;;;;;;5.90;100.00;98645.41;5042031;28;20218;-75
2023/11/17 01:50:35;;;;;;;2.50;1.40;;;;;;;5.83;100.00;98642.59;5045212;28;20040;-76
2023/11/17 01:53:01;;;;;;;1.25;0.85;;;;;;;5.67;100.00;98616.69;5044256;28;20096;-77
2023/11/17 01:55:27;;;;;;;4.82;1.45;;;;;;;5.85;100.00;98667.41;5045112;28;20025;-76
2023/11/17 01:57:52;;;;;;;1.48;1.08;;;;;;;5.89;100.00;98676.81;5027509;28;20322;-77
2023/11/17 02:00:19;;;;;;;1.83;0.90;;;;;;;5.80;100.00;98645.63;5028072;28;20018;-78
2023/11/17 02:02:47;;;;;;;2.30;1.25;;;;;;;5.79;100.00;98659.22;5065294;28;20023;-74
2023/11/17 02:05:16;;;;;;;4.50;1.27;;;;;;;5.86;100.00;98669.09;5053537;28;20052;-76
2023/11/17 02:08:10;;;;;;;3.63;1.48;;;;;;;5.98;100.00;98687.53;5045038;28;20041;-75
2023/11/17 02:10:44;;;;;;;5.18;1.42;;;;;;;5.90;100.00;98685.69;5030361;28;20349;-75
2023/11/17 02:13:27;;;;;;;4.47;1.70;;;;;;;5.91;100.00;98685.50;5053577;28;20457;-76
2023/11/17 02:16:00;;;;;;;4.97;1.67;;;;;;;6.01;100.00;98704.13;5038129;28;20064;-76
2023/11/17 02:18:30;;;;;;;4.10;2.10;;;;;;;5.99;100.00;98716.88;5024991;28;20349;-75
2023/11/17 02:20:58;;;;;;;2.77;1.73;;;;;;;5.89;100.00;98694.75;5024701;28;20108;-76
2023/11/17 02:23:26;;;;;;;5.10;1.92;;;;;;;5.92;100.00;98705.97;5039810;28;20298;-74
2023/11/17 02:26:15;;;;;;;5.00;2.10;;;;;;;6.03;100.00;98723.56;5044641;28;20036;-76
2023/11/17 02:28:59;;;;;;;;;;;;;;;6.05;100.00;98734.13;5038873;28;20025;-74
2023/11/17 02:31:35;;;;;;;4.78;2.22;;;;;;;5.97;100.00;98729.63;5034746;28;20000;-74
2023/11/17 02:34:10;;;;;;;3.80;2.08;;;;;;;6.05;100.00;98731.44;5029627;28;20096;-76
2023/11/17 02:36:38;;;;;;;3.92;2.40;;;;;;;6.06;100.00;98733.97;5025935;28;20367;-74
2023/11/17 02:39:13;;;;;;;5.30;2.25;;;;;;;5.97;100.00;98728.81;5024718;28;20398;-74
2023/11/17 02:41:47;;;;;;;3.75;2.25;;;;;;;5.97;100.00;98742.22;5043478;28;20059;-74
2023/11/17 02:44:15;;;;;;;4.30;2.22;;;;;;;5.97;100.00;98748.44;5043533;28;20049;-74
2023/11/17 02:46:44;;;;;;;5.38;2.28;;;;;;;5.90;100.00;98740.22;5025230;28;20034;-74
2023/11/17 02:49:22;;;;;;;4.40;2.58;;;;;;;5.98;100.00;98757.34;5044069;28;20314;-74
2023/11/17 02:51:51;;;;;;;4.05;2.42;;;;;;;5.88;100.00;98763.72;5031969;28;20222;-74
2023/11/17 02:54:20;;;;;;;4.43;2.47;;;;;;;5.79;100.00;98753.19;5030319;28;20047;-73
2023/11/17 02:56:46;;;;;;;4.97;2.78;;;;;;;5.87;100.00;98763.91;5024317;28;20080;-75
2023/11/17 02:59:13;;;;;;;6.70;2.85;;;;;;;5.71;100.00;98752.22;5020383;28;20028;-75
2023/11/17 03:01:39;;;;;;;7.20;3.30;;;;;;;5.99;100.00;98797.44;5055840;28;20028;-75
2023/11/17 03:04:13;;;;;;;4.93;2.80;;;;;;;5.97;100.00;98790.56;5045795;28;20068;-74
2023/11/17 03:07:02;;;;;;;6.25;3.30;;;;;;;6.02;100.00;98790.88;5041387;28;20029;-73
2023/11/17 03:09:29;;;;;;;5.75;3.75;;;;;;;5.95;100.00;98781.84;5043041;28;20103;-74
2023/11/17 03:11:59;;;;;;;8.82;4.10;;;;;;;6.04;100.00;98796.91;5043725;28;20055;-74
2023/11/17 03:14:25;;;;;;;7.20;3.95;;;;;;;6.01;100.00;98800.78;5025062;28;20096;-75
2023/11/17 03:16:53;;;;;;;8.00;3.70;;;;;;;5.88;100.00;98785.19;5041156;28;20092;-75
2023/11/17 03:19:19;;;;;;;6.50;3.53;;;;;;;5.94;100.00;98802.50;5025771;28;20254;-73
2023/11/17 03:21:45;;;;;;;9.55;3.60;;;;;;;5.85;100.00;98792.78;5043785;28;20255;-75
2023/11/17 03:24:17;;;;;;;7.22;4.10;;;;;;;5.98;100.00;98822.63;5029899;28;20087;-74
2023/11/17 03:26:46;;;;;;;8.65;3.75;;;;;;;5.90;100.00;98810.03;5023899;28;20026;-75
2023/11/17 03:29:16;;;;;;;7.95;3.90;;;;;;;5.98;100.00;98811.88;5012141;28;20049;-74
2023/11/17 03:31:49;;;;;;;7.18;4.00;;;;;;;6.07;100.00;98836.84;5039005;28;20044;-74
2023/11/17 03:34:23;;;;;;;9.82;4.90;;;;;;;6.04;100.00;98842.56;5025091;28;20029;-75
2023/11/17 03:36:56;;;;;;;8.95;4.45;;;;;;;6.05;100.00;98839.72;5043436;28;20310;-74
2023/11/17 03:39:25;;;;;;;8.32;4.50;;;;;;;5.97;100.00;98829.00;5042534;28;20314;-74
2023/11/17 03:41:51;;;;;;;7.35;4.47;;;;;;;6.01;100.00;98838.38;5025670;28;20049;-74
2023/11/17 03:44:16;;;;;;;7.07;4.15;;;;;;;5.99;100.00;98842.25;5060509;28;20025;-77
2023/11/17 03:46:51;;;;;;;9.50;4.63;;;;;;;6.08;100.00;98854.66;5055068;28;20035;-76
2023/11/17 03:49:20;;;;;;;9.50;4.15;;;;;;;6.11;100.00;98865.06;5028614;28;20258;-77
2023/11/17 03:51:46;;;;;;;8.57;4.55;;;;;;;5.89;100.00;98837.03;5057057;28;20034;-73
2023/11/17 03:54:11;;;;;;;9.90;4.35;;;;;;;5.97;100.00;98841.59;5030773;28;20037;-72
2023/11/17 03:56:37;;;;;;;8.13;4.78;;;;;;;6.09;100.00;98869.75;5067289;28;20029;-77
2023/11/17 03:59:04;;;;;;;8.65;4.88;;;;;;;5.95;100.00;98857.03;5032406;28;20037;-76
2023/11/17 04:01:33;;;;;;;8.55;4.97;;;;;;;5.90;100.00;98858.38;5052388;28;20032;-78
2023/11/17 04:03:59;;;;;;;9.68;5.05;;;;;;;5.96;100.00;98866.78;5046623;28;20036;-77
2023/11/17 04:06:24;;;;;;;12.38;5.45;;;;;;;5.85;100.00;98849.16;5041708;28;20214;-76
2023/11/17 04:08:50;;;;;;;10.57;4.63;;;;;;;6.03;100.00;98883.88;5036239;28;20057;-79
2023/11/17 04:11:16;;;;;;;11.95;5.05;;;;;;;5.97;100.00;98877.34;5027790;28;20022;-76
2023/11/17 04:13:42;;;;;;;9.95;4.75;;;;;;;5.95;100.00;98884.75;5043648;28;20028;-76
2023/11/17 04:16:10;;;;;;;8.95;4.80;;;;;;;5.89;100.00;98883.56;5040253;28;20056;-78
2023/11/17 04:18:39;;;;;;;10.45;5.00;;;;;;;5.96;100.00;98907.88;5034684;28;20052;-77
2023/11/17 04:21:05;;;;;;;8.63;4.72;;;;;;;5.97;100.00;98906.88;5007873;28;20055;-77
2023/11/17 04:23:34;;;;;;;7.75;4.35;;;;;;;5.80;100.00;98887.25;5020135;28;20026;-77
2023/11/17 04:26:00;;;;;;;8.50;3.95;;;;;;;5.92;100.00;98899.31;5026233;28;20021;-77
2023/11/17 04:28:26;;;;;;;7.78;3.13;;;;;;;5.81;100.00;98872.81;5026224;28;20017;-77
2023/11/17 04:30:51;;;;;;;7.72;3.30;;;;;;;5.93;100.00;98894.78;5044755;28;20048;-77
2023/11/17 04:33:16;;;;;;;6.88;3.15;;;;;;;5.88;100.00;98891.78;5028970;28;20052;-82
2023/11/17 04:35:41;;;;;;;5.22;2.70;;;;;;;5.91;100.00;98894.94;5023447;28;20030;-79
2023/11/17 04:38:07;;;;;;;4.22;2.58;;;;;;;5.82;100.00;98882.56;5035501;28;20028;-78
2023/11/17 04:40:33;;;;;;;4.45;2.65;;;;;;;5.83;100.00;98889.59;5033384;28;20314;-77
2023/11/17 04:43:00;;;;;;;4.75;2.60;;;;;;;5.79;100.00;98892.78;5042610;28;20075;-75
2023/11/17 04:45:25;;;;;;;7.68;2.83;;;;;;;5.80;100.00;98898.00;5043859;28;20025;-81
2023/11/17 04:47:51;;;;;;;4.82;2.35;;;;;;;5.80;100.00;98887.25;5029421;28;20029;-78
2023/11/17 04:50:16;;;;;;;7.15;2.88;;;;;;;5.74;100.00;98890.63;5046685;28;20053;-80
2023/11/17 04:52:42;;;;;;;4.88;2.55;;;;;;;5.77;100.00;98901.03;5028473;28;20477;-80
2023/11/17 04:55:12;;;;;;;6.15;2.42;;;;;;;5.65;100.00;98870.16;5045380;28;20062;-79
2023/11/17 04:57:37;;;;;;;5.75;2.70;;;;;;;5.80;100.00;98903.34;5028865;28;20032;-78
2023/11/17 05:00:04;;;;;;;4.80;2.75;;;;;;;5.68;100.00;98891.28;5028843;28;20021;-79
2023/11/17 05:02:32;;;;;;;6.68;2.83;;;;;;;5.63;100.00;98907.06;5039577;28;20025;-80
2023/11/17 05:04:58;;;;;;;5.32;2.90;;;;;;;5.68;100.00;98912.75;5039642;28;20103;-80
2023/11/17 05:07:24;;;;;;;6.00;2.97;;;;;;;5.62;100.00;98910.75;5043754;28;20030;-81
2023/11/17 05:09:49;;;;;;;8.65;3.33;;;;;;;5.64;100.00;98906.06;5028449;28;20026;-82
2023/11/17 05:12:15;;;;;;;7.82;3.20;;;;;;;5.68;100.00;98928.88;5043381;28;20122;-83
2023/11/17 05:14:40;;;;;;;5.22;3.00;;;;;;;5.56;100.00;98914.13;5032630;28;20025;-83
2023/11/17 05:17:09;;;;;;;6.80;2.67;;;;;;;5.52;100.00;98913.63;5033127;28;20029;-80
2023/11/17 05:19:37;;;;;;;10.35;3.08;;;;;;;5.56;100.00;98919.50;5020984;28;20041;-82
2023/11/17 05:22:03;;;;;;;5.18;2.50;;;;;;;5.46;100.00;98903.56;5028086;28;20048;-82
2023/11/17 05:24:30;;;;;;;7.55;2.80;;;;;;;5.58;100.00;98917.47;5046480;28;20218;-82
2023/11/17 05:26:56;;;;;;;7.43;2.67;;;;;;;5.53;100.00;98919.81;5028180;28;20024;-80
2023/11/17 05:29:22;;;;;;;8.95;2.85;;;;;;;5.46;100.00;98909.75;5039190;28;20033;-80
2023/11/17 05:31:47;;;;;;;6.43;2.80;;;;;;;5.59;100.00;98927.22;5041543;28;20061;-79
2023/11/17 05:34:13;;;;;;;6.97;3.05;;;;;;;5.63;100.00;98931.22;5042493;28;20035;-81
2023/11/17 05:36:39;;;;;;;6.78;3.15;;;;;;;5.56;100.00;98920.34;5023725;28;20238;-79
2023/11/17 05:39:05;;;;;;;5.03;2.72;;;;;;;5.62;100.00;98930.38;5026678;28;20021;-79
2023/11/17 05:41:31;;;;;;;9.35;3.60;;;;;;;5.68;100.00;98936.91;5027907;28;20032;-82
2023/11/17 05:43:57;;;;;;;9.50;3.30;;;;;;;5.63;100.00;98926.72;5041140;28;20029;-81
2023/11/17 05:46:23;;;;;;;4.38;2.47;;;;;;;5.59;100.00;98929.91;5040673;28;20052;-79
2023/11/17 05:48:50;;;;;;;8.13;3.80;;;;;;;5.63;100.00;98940.13;5029193;28;20294;-82
2023/11/17 05:51:15;;;;;;;13.32;3.95;;;;;;;5.60;100.00;98932.38;5022686;28;20029;-75
2023/11/17 05:53:40;;;;;;;8.35;3.50;;;;;;;5.67;100.00;98946.81;5044021;28;20025;-75
2023/11/17 05:56:07;;;;;;;9.25;3.05;;;;;;;5.75;100.00;98966.63;5041976;28;20040;-82
2023/11/17 05:58:33;;;;;;;8.70;3.17;;;;;;;5.67;100.00;98970.97;5023114;28;20029;-80
2023/11/17 06:00:59;;;;;;;3.80;2.67;;;;;;;5.58;100.00;98953.22;5046155;28;20092;-87
2023/11/17 06:03:24;;;;;;;6.93;3.72;;;;;;;5.59;100.00;98946.84;5043978;28;20389;-79
2023/11/17 06:05:50;;;;;;;6.10;3.47;;;;;;;5.67;100.00;98962.94;5017465;28;20025;-79
2023/11/17 06:08:15;;;;;;;5.88;3.63;;;;;;;5.63;100.00;98948.19;5017283;28;20345;-75
2023/11/17 06:10:41;;;;;;;7.93;3.47;;;;;;;5.72;100.00;98978.53;5033912;28;20021;-78
2023/11/17 06:13:07;;;;;;;6.45;3.78;;;;;;;5.57;100.00;98948.84;5021393;28;20324;-81
2023/11/17 06:15:34;;;;;;;8.25;3.85;;;;;;;5.69;100.00;98965.47;5025408;28;20033;-78
2023/11/17 06:17:59;;;;;;;6.85;4.03;;;;;;;5.64;100.00;98960.59;5039525;28;20029;-75
2023/11/17 06:20:25;;;;;;;8.70;4.28;;;;;;;5.74;100.00;98978.34;5039471;28;20266;-78
2023/11/17 06:22:51;;;;;;;8.75;4.60;;;;;;;5.64;100.00;98959.75;5023288;28;20104;-79
2023/11/17 06:25:16;;;;;;;8.55;4.57;;;;;;;5.79;100.00;98982.25;5042331;28;20049;-73
2023/11/17 06:27:42;;;;;;;9.30;3.92;;;;;;;5.63;100.00;98966.97;5044567;28;20029;-77
2023/11/17 06:30:08;;;;;;;8.38;3.75;;;;;;;5.73;100.00;98990.94;5025965;28;20087;-82
2023/11/17 06:32:34;;;;;;;7.25;4.10;;;;;;;5.78;100.00;98985.06;5041090;28;20314;-76
2023/11/17 06:34:59;;;;;;;5.68;3.42;;;;;;;5.80;100.00;98991.97;5041348;28;20022;-81
2023/11/17 06:37:24;;;;;;;7.00;3.45;;;;;;;5.76;100.00;98989.78;5032040;28;20025;-82
2023/11/17 06:39:50;;;;;;;9.02;4.05;;;;;;;5.75;100.00;98986.25;5046367;28;20243;-85
2023/11/17 06:42:16;;;;;;;10.30;4.80;;;;;;;5.60;100.00;98971.81;5020216;28;20022;-78
2023/11/17 06:44:41;;;;;;;9.50;4.30;;;;;;;5.69;100.00;98978.88;5017698;28;20024;-79
2023/11/17 06:47:06;;;;;;;9.00;4.43;;;;;;;5.68;100.00;98982.56;5024644;28;20048;-77
2023/11/17 06:49:32;;;;;;;8.68;4.35;;;;;;;5.61;100.00;98965.47;5038171;28;20064;-77
2023/11/17 06:51:58;;;;;;;7.53;4.15;;;;;;;5.76;100.00;98995.97;5019073;28;20266;-78
2023/11/17 06:54:24;;;;;;;8.35;4.00;;;;;;;5.77;100.00;98986.94;5020283;28;20092;-78
2023/11/17 06:56:51;;;;;;;8.70;3.78;;;;;;;5.71;100.00;98982.22;5044484;28;20096;-79
2023/11/17 06:59:22;;;;;;;9.23;4.72;;;;;;;5.79;100.00;98987.59;5023091;28;20032;-75
2023/11/17 07:01:50;;;;;;;6.90;3.90;;;;;;;5.86;100.00;99006.56;5038521;28;20055;-75
2023/11/17 07:04:16;;;;;;;6.20;3.97;;;;;;;5.86;100.00;99012.75;5024817;28;20025;-76
2023/11/17 07:06:42;;;;;;;9.32;4.15;;;;;;;5.79;100.00;99005.53;5024583;28;20058;-75
2023/11/17 07:09:19;;;;;;;10.15;4.47;;;;;;;5.91;100.00;99018.47;5043208;28;20235;-77
2023/11/17 07:11:46;;;;;;;9.60;4.53;;;;;;;5.79;100.00;98992.97;5038082;28;20021;-76
2023/11/17 07:14:13;;;;;;;12.05;5.22;;;;;;;5.85;100.00;99015.63;5041605;28;20063;-75
2023/11/17 07:16:41;;;;;;;10.13;4.07;;;;;;;5.82;100.00;99014.13;5023420;28;20029;-75
2023/11/17 07:19:08;;;;;;;11.43;4.72;;;;;;;5.84;100.00;99038.09;5041626;28;20029;-77
2023/11/17 07:21:37;;;;;;;7.25;4.15;;;;;;;5.96;100.00;99031.41;5043031;28;20029;-76
2023/11/17 07:24:05;;;;;;;7.68;3.60;;;;;;;5.97;100.00;99030.41;5011544;28;20048;-76
2023/11/17 07:26:32;;;;;;;7.07;3.50;;;;;;;6.06;100.00;99024.03;5043093;28;20033;-76
2023/11/17 07:28:57;;;;;;;6.10;3.13;;;;;;;6.06;100.00;99036.63;5029439;28;20042;-77
2023/11/17 07:31:23;;;;;;;6.57;3.30;;;;;;;6.11;100.00;99036.97;5018780;28;20038;-77
2023/11/17 07:33:48;;;;;;;7.10;3.58;;;;;;;6.07;100.00;99022.19;5029982;28;20060;-78
2023/11/17 07:36:16;;;;;;;7.43;2.85;;;;;;;6.16;100.00;99042.66;5025641;28;20018;-83
2023/11/17 07:38:44;;;;;;;6.40;3.75;;;;;;;6.04;100.00;99030.59;5053507;28;20230;-79
2023/11/17 07:41:10;;;;;;;7.65;3.78;;;;;;;6.19;100.00;99060.31;5034030;28;20060;-77
2023/11/17 07:43:36;;;;;;;6.63;3.40;;;;;;;6.20;100.00;99061.97;5031394;28;20026;-78
2023/11/17 07:46:02;;;;;;;9.10;3.60;;;;;;;6.10;100.00;99028.06;5008703;28;20032;-81
2023/11/17 07:48:27;;;;;;;7.65;3.88;;;;;;;6.17;100.00;99040.81;5037053;28;20222;-83
2023/11/17 07:50:53;;;;;;;10.30;4.43;;;;;;;6.18;100.00;99042.47;5045998;28;20029;-77
2023/11/17 07:53:21;;;;;;;9.80;4.45;;;;;;;6.17;100.00;99043.50;5027116;28;20060;-81
2023/11/17 07:55:46;;;;;;;12.32;5.50;;;;;;;6.27;100.00;99068.34;5024481;28;20214;-77
2023/11/17 07:58:11;;;;;;;10.98;5.60;;;;;;;6.11;100.00;99055.78;5047263;28;20023;-79
2023/11/17 08:00:37;;;;;;;13.52;4.82;;;;;;;6.02;100.00;99032.59;5026344;28;20020;-81
2023/11/17 08:03:04;;;;;;;8.25;4.30;;;;;;;6.33;100.00;99073.88;5026765;28;20017;-80
2023/11/17 08:05:30;;;;;;;9.45;4.78;;;;;;;6.33;100.00;99067.66;5025993;28;20021;-74
2023/11/17 08:07:56;;;;;;;15.35;5.63;;;;;;;6.42;100.00;99072.03;5033881;28;20349;-77
2023/11/17 08:10:21;;;;;;;10.65;5.13;;;;;;;6.55;100.00;99087.66;5017969;28;20104;-77
2023/11/17 08:12:46;;;;;;;8.55;4.00;;;;;;;6.45;100.00;99078.91;5025249;28;20289;-72
2023/11/17 08:15:12;;;;;;;6.18;3.88;;;;;;;6.48;100.00;99086.63;5038400;28;20223;-71
2023/11/17 08:17:37;;;;;;;8.82;4.40;;;;;;;6.52;100.00;99079.88;5043415;28;20083;-71
2023/11/17 08:20:13;;;;;;;11.60;4.93;;;;;;;6.56;100.00;99084.75;5046015;28;20060;-71
2023/11/17 08:22:39;;;;;;;10.70;5.07;;;;;;;6.69;100.00;99096.84;5022334;28;20064;-70
2023/11/17 08:25:04;;;;;;;7.05;3.80;;;;;;;6.58;100.00;99098.06;5041292;28;20060;-70
2023/11/17 08:27:29;;;;;;;9.57;3.60;;;;;;;6.71;100.00;99092.16;5022477;28;20025;-72
2023/11/17 08:29:55;;;;;;;6.05;3.83;;;;;;;6.76;100.00;99101.38;5040290;28;20330;-71
2023/11/17 08:32:20;;;;;;;8.50;3.72;;;;;;;6.72;100.00;99105.41;5024694;28;20339;-71
2023/11/17 08:34:46;;;;;;;6.90;3.05;;;;;;;6.73;100.00;99096.34;5024336;28;20053;-70
2023/11/17 08:37:15;;;;;;;6.07;3.75;;;;;;;6.70;100.00;99085.91;5042506;28;20380;-73
2023/11/17 08:39:41;;;;;;;10.68;3.83;;;;;;;6.82;100.00;99112.44;5034968;28;20323;-73
2023/11/17 08:42:08;;;;;;;6.85;3.78;;;;;;;6.76;100.00;99079.88;5023825;28;20037;-71
2023/11/17 08:44:33;;;;;;;5.75;3.22;;;;;;;6.64;100.00;99081.22;5022734;28;20026;-74
2023/11/17 08:46:59;;;;;;;8.70;3.85;;;;;;;6.80;100.00;99107.25;5025626;28;20049;-69
2023/11/17 08:49:25;;;;;;;5.53;3.67;;;;;;;6.67;100.00;99105.06;5031650;28;20029;-70
2023/11/17 08:51:51;;;;;;;7.53;3.72;;;;;;;6.79;100.00;99101.03;5021228;28;20105;-70
2023/11/17 08:54:20;;;;;;;7.88;3.80;;;;;;;6.84;100.00;99107.72;5028645;28;20018;-71
2023/11/17 08:56:48;;;;;;;8.52;4.47;;;;;;;6.83;100.00;99104.19;5037574;28;20388;-70
2023/11/17 08:59:14;;;;;;;9.35;4.65;;;;;;;6.90;100.00;99117.81;5039110;28;20028;-70
2023/11/17 09:01:40;;;;;;;7.32;3.88;;;;;;;6.79;100.00;99116.31;5041578;28;20029;-69
2023/11/17 09:04:06;;;;;;;6.05;3.22;;;;;;;6.93;100.00;99122.84;5041435;28;20021;-69
2023/11/17 09:06:31;;;;;;;6.68;4.13;;;;;;;7.05;100.00;99124.16;5042729;28;20096;-69
2023/11/17 09:08:57;;;;;;;7.45;3.95;;;;;;;7.11;100.00;99125.31;5036434;28;20037;-69
2023/11/17 09:11:22;;;;;;;8.25;3.97;;;;;;;6.99;100.00;99106.00;5038363;28;20036;-73
2023/11/17 09:13:49;;;;;;;8.57;4.57;;;;;;;7.21;100.00;99120.56;5033580;28;20029;-78
2023/11/17 09:16:15;;;;;;;9.25;4.32;;;;;;;7.10;100.00;99097.56;5037624;28;20041;-76
2023/11/17 09:18:41;;;;;;;13.50;4.70;;;;;;;7.18;100.00;99102.91;5038306;28;20021;-79
2023/11/17 09:21:07;;;;;;;10.77;5.15;;;;;;;6.91;100.00;99076.44;5023561;28;20305;-84
2023/11/17 09:23:34;;;;;;;12.10;5.72;;;;;;;7.36;100.00;99096.44;5037573;28;20028;-76
2023/11/17 09:26:03;;;;;;;11.45;4.72;;;;;;;7.41;100.00;99088.69;5019719;28;20219;-73
2023/11/17 09:28:29;;;;;;;8.50;4.85;;;;;;;7.80;100.00;99122.78;5023709;28;20025;-75
2023/11/17 09:30:56;;;;;;;7.40;4.50;;;;;;;7.80;100.00;99110.16;5025487;28;20053;-75
2023/11/17 09:33:22;;;;;;;9.02;5.18;;;;;;;7.57;100.00;99110.16;5027639;28;20104;-75
2023/11/17 09:35:48;;;;;;;9.15;5.18;;;;;;;7.53;100.00;99106.13;5039091;28;20026;-74
2023/11/17 09:38:16;;;;;;;9.07;4.55;;;;;;;7.30;100.00;99114.13;5027536;28;20024;-77
2023/11/17 09:40:41;;;;;;;11.70;5.55;;;;;;;7.47;100.00;99104.16;5034876;28;20088;-77
2023/11/17 09:43:23;;;;;;;7.70;3.92;;;;;;;7.26;100.00;99139.72;5013669;28;20025;-79
2023/11/17 09:45:52;;;;;;;8.50;4.85;;;;;;;7.31;100.00;99123.03;5032129;28;20017;-76
2023/11/17 09:48:18;;;;;;;;;;;;;;;7.29;100.00;99130.47;5050907;28;20026;-80
2023/11/17 09:50:45;;;;;;;9.90;4.70;;;;;;;7.12;100.00;99105.47;5029140;28;20043;-78
2023/11/17 09:53:15;;;;;;;8.63;4.97;;;;;;;7.33;100.00;99134.47;5028052;28;20022;-71
2023/11/17 09:55:42;;;;;;;8.65;4.60;;;;;;;7.21;100.00;99129.47;5045205;28;20029;-74
2023/11/17 09:58:15;;;;;;;9.82;4.80;;;;;;;7.30;100.00;99146.44;5027502;28;20025;-77
2023/11/17 10:00:43;;;;;;;9.75;5.07;;;;;;;7.14;100.00;99136.56;5044243;28;20070;-75
2023/11/17 10:03:10;;;;;;;7.93;4.85;;;;;;;7.15;100.00;99143.63;5026267;28;20047;-75
2023/11/17 10:05:36;;;;;;;8.18;4.43;;;;;;;7.33;100.00;99139.84;5037425;28;20022;-76
2023/11/17 10:08:16;;;;;;;9.05;5.25;;;;;;;7.42;100.00;99149.59;5039832;28;20187;-75
2023/11/17 10:10:44;;;;;;;11.50;5.47;;;;;;;7.50;100.00;99125.31;5023200;28;20033;-74
2023/11/17 10:13:13;;;;;;;9.60;5.40;;;;;;;7.16;100.00;99120.25;5037084;28;20312;-75
2023/11/17 10:15:46;;;;;;;9.85;5.47;;;;;;;7.23;100.00;99111.31;5044416;28;20022;-74
2023/11/17 10:18:17;;;;;;;11.80;5.82;;;;;;;7.30;100.00;99140.22;5041053;28;20049;-72
2023/11/17 10:20:43;;;;;;;10.45;5.88;;;;;;;7.24;100.00;99137.19;5039234;28;20306;-74
2023/11/17 10:23:08;;;;;;;18.92;5.60;;;;;;;7.21;100.00;99148.31;5044584;28;20017;-74
2023/11/17 10:25:34;;;;;;;11.68;6.43;;;;;;;7.31;100.00;99158.88;5025009;28;20083;-75
2023/11/17 10:28:05;;;;;;;16.70;8.20;;;;;;;7.29;100.00;99130.47;5027225;28;20058;-76
2023/11/17 10:30:34;;;;;;;12.02;6.07;;;;;;;7.38;100.00;99140.19;5024624;28;20018;-73
2023/11/17 10:33:19;;;;;;;13.32;5.43;;;;;;;7.44;100.00;99147.53;5044285;28;20029;-73
2023/11/17 10:36:02;;;;;;;7.32;4.72;;;;;;;7.29;100.00;99138.53;5027566;28;20025;-76
2023/11/17 10:38:29;;;;;;;14.00;5.07;;;;;;;7.12;100.00;99141.28;5043916;28;20021;-73
2023/11/17 10:41:10;;;;;;;8.48;5.10;;;;;;;7.03;100.00;99139.63;5038071;28;20044;-74
2023/11/17 10:43:49;;;;;;;12.25;5.20;;;;;;;7.01;100.00;99139.78;5031347;28;20020;-73
2023/11/17 10:46:16;;;;;;;10.55;5.18;;;;;;;7.14;100.00;99155.41;5042837;28;20021;-73
2023/11/17 10:48:42;;;;;;;9.23;5.25;;;;;;;7.18;100.00;99151.34;5036061;28;20064;-74
2023/11/17 10:51:11;;;;;;;10.57;5.75;;;;;;;7.12;100.00;99152.03;5041615;28;20250;-74
2023/11/17 10:53:36;;;;;;;10.43;5.10;;;;;;;7.03;100.00;99153.91;5025958;28;20063;-73
2023/11/17 10:56:01;;;;;;;11.75;6.95;;;;;;;7.07;100.00;99158.94;5041780;28;20029;-73
2023/11/17 10:58:27;;;;;;;16.60;8.52;;;;;;;7.04;100.00;99130.53;5031412;28;20021;-73
2023/11/17 11:00:55;;;;;;;18.58;9.13;;;;;;;7.26;100.00;99153.19;5038605;28;21616;-73
2023/11/17 11:03:22;;;;;;;18.58;9.95;;;;;;;7.32;100.00;99136.34;5043261;28;20036;-73
2023/11/17 11:05:48;;;;;;;25.83;11.02;;;;;;;7.42;100.00;99150.44;5043238;28;20036;-76
2023/11/17 11:08:18;;;;;;;24.30;10.20;;;;;;;7.54;100.00;99136.56;5043353;28;20076;-70
2023/11/17 11:10:54;;;;;;;13.32;6.60;;;;;;;7.70;100.00;99144.56;5039382;28;20040;-70
2023/11/17 11:13:30;;;;;;;13.82;6.88;;;;;;;7.64;100.00;99143.41;5042818;28;20338;-70
2023/11/17 11:16:05;;;;;;;14.15;6.88;;;;;;;7.50;100.00;99128.00;5023746;28;20021;-70
2023/11/17 11:18:35;;;;;;;11.05;5.88;;;;;;;7.67;100.00;99129.59;5037892;28;20032;-69
2023/11/17 11:21:03;;;;;;;14.85;5.40;;;;;;;7.69;100.00;99137.50;5037772;28;20250;-70
2023/11/17 11:23:29;;;;;;;9.93;5.20;;;;;;;7.53;100.00;99135.75;5043289;28;20115;-70
2023/11/17 11:25:55;;;;;;;11.13;5.10;;;;;;;7.55;100.00;99139.09;5045868;28;20043;-70
2023/11/17 11:28:21;;;;;;;12.70;5.85;;;;;;;7.47;100.00;99144.53;5041906;28;20033;-69
2023/11/17 11:30:49;;;;;;;13.18;5.95;;;;;;;7.43;100.00;99138.63;5040074;28;20035;-70
2023/11/17 11:33:20;;;;;;;12.98;6.40;;;;;;;7.44;100.00;99147.53;5041339;28;20417;-71
2023/11/17 11:35:45;;;;;;;16.73;6.38;;;;;;;7.50;100.00;99149.56;5020471;28;20091;-71